Terminal Aerodrome Forecast
Issued by NWS

Home | Current Version | Previous Version | Graphics & Text | Print | Product List | Glossary On
Versions: 1 2 3 4 5 6 7 8 9 10 11 12 13 14 15 16
000
FTUS43 KMPX 271516 AAA
TAFRWF
TAF AMD
KRWF 271516Z 2715/2812 32007KT P6SM VCTS BKN015CB OVC120
      TEMPO 2715/2718 SCT015CB OVC120
     FM272000 35005KT P6SM SCT025 BKN035 OVC100
     FM280800 34005KT P6SM OVC015=

USA.gov is the U.S. government's official web portal to all federal, state and local government web resources and services.